createdAt,value
2022-08-18T00:01:39.570Z,24.10
2022-08-18T00:04:21.769Z,24.40
2022-08-18T00:06:58.965Z,24.80
2022-08-18T00:09:32.216Z,25.00
2022-08-18T00:12:04.977Z,24.90
2022-08-18T00:14:33.734Z,24.70
2022-08-18T00:17:02.360Z,24.90
2022-08-18T00:19:47.066Z,25.00
2022-08-18T00:22:20.284Z,25.10
2022-08-18T00:24:53.065Z,25.20
2022-08-18T00:27:28.750Z,25.00
2022-08-18T00:30:00.769Z,25.00
2022-08-18T00:32:33.949Z,25.20
2022-08-18T00:35:10.255Z,25.30
2022-08-18T00:37:38.574Z,25.20
2022-08-18T00:40:12.339Z,25.00
2022-08-18T00:42:46.449Z,24.90
2022-08-18T00:45:20.394Z,25.00
2022-08-18T00:47:48.765Z,24.90
2022-08-18T00:50:21.941Z,23.50
2022-08-18T00:52:57.135Z,23.60
2022-08-18T00:55:29.373Z,24.20
2022-08-18T00:58:04.538Z,24.60
2022-08-18T01:00:33.931Z,24.80
2022-08-18T01:03:08.922Z,25.00
2022-08-18T01:05:43.493Z,25.00
2022-08-18T01:08:15.774Z,24.80
2022-08-18T01:10:47.228Z,25.00
2022-08-18T01:13:16.116Z,25.00
2022-08-18T01:15:44.572Z,24.70
2022-08-18T01:18:33.303Z,24.90
2022-08-18T01:21:27.185Z,25.00
2022-08-18T01:23:58.717Z,24.10
2022-08-18T01:26:30.360Z,24.50
2022-08-18T01:29:11.675Z,24.70
2022-08-18T01:31:55.579Z,24.40
2022-08-18T01:34:28.485Z,24.20
2022-08-18T01:36:57.725Z,24.60
2022-08-18T01:41:23.005Z,24.20
2022-08-18T01:42:18.274Z,24.50
2022-08-18T01:44:48.045Z,24.20
2022-08-18T01:47:18.405Z,23.00
2022-08-18T01:49:47.011Z,23.30
2022-08-18T01:52:21.181Z,23.00
2022-08-18T01:54:51.984Z,23.00
2022-08-18T01:57:22.740Z,23.50
2022-08-18T01:59:51.374Z,24.20
2022-08-18T02:02:25.146Z,23.40
2022-08-18T02:04:59.444Z,23.70
2022-08-18T02:07:36.062Z,23.00
2022-08-18T02:10:11.862Z,23.00
2022-08-18T02:12:41.501Z,23.60
2022-08-18T02:15:11.295Z,23.90
2022-08-18T02:17:40.659Z,23.90
2022-08-18T02:20:12.380Z,23.90
2022-08-18T05:41:32.452Z,20.70
2022-08-18T05:44:01.825Z,20.80
2022-08-18T05:46:45.430Z,22.30
2022-08-18T05:49:15.534Z,23.00
2022-08-18T05:51:48.245Z,23.80
2022-08-18T05:54:35.212Z,24.30
2022-08-18T05:57:09.181Z,24.10
2022-08-18T05:59:42.873Z,23.50
2022-08-18T06:02:25.341Z,24.20
2022-08-18T06:04:58.074Z,23.90
2022-08-18T06:07:34.829Z,24.20
2022-08-18T06:10:05.826Z,24.20
2022-08-18T06:12:40.234Z,24.30
2022-08-18T06:15:18.267Z,24.40
2022-08-18T06:18:31.907Z,24.10
2022-08-18T06:21:41.327Z,24.00
2022-08-18T06:24:27.618Z,24.60
2022-08-18T06:27:06.963Z,24.60
2022-08-18T06:29:55.415Z,24.70
2022-08-18T06:32:43.638Z,24.10
2022-08-18T06:35:23.740Z,23.90
2022-08-18T06:38:19.579Z,24.50
2022-08-18T06:40:49.805Z,24.30
2022-08-18T06:43:19.714Z,23.70
2022-08-18T06:45:53.130Z,23.70
2022-08-18T06:48:35.830Z,24.00
2022-08-18T06:51:08.163Z,24.40
2022-08-18T06:53:57.626Z,24.40
2022-08-18T06:56:35.381Z,24.80
2022-08-18T06:59:23.556Z,24.60
2022-08-18T07:01:56.151Z,24.30
2022-08-18T07:04:42.336Z,24.40
2022-08-18T07:07:40.174Z,24.40
2022-08-18T07:10:32.547Z,24.30
2022-08-18T07:13:26.417Z,24.10
2022-08-18T07:16:18.612Z,24.10
2022-08-18T07:18:54.855Z,24.30
2022-08-18T07:21:29.778Z,24.70
2022-08-18T07:24:24.405Z,24.80
2022-08-18T07:27:02.716Z,24.20
2022-08-18T07:29:34.416Z,24.30
2022-08-18T07:32:12.603Z,22.90
2022-08-18T07:34:55.290Z,23.10
2022-08-18T07:37:32.605Z,23.70
2022-08-18T07:40:21.057Z,24.00
2022-08-18T07:43:01.133Z,24.40
2022-08-18T07:45:37.172Z,24.80
2022-08-18T07:48:37.618Z,24.80
2022-08-18T07:51:13.700Z,24.40
2022-08-18T07:53:56.746Z,24.80
2022-08-18T07:56:38.948Z,24.20
2022-08-18T07:59:16.470Z,24.60
2022-08-18T08:01:53.483Z,24.50
2022-08-18T08:04:40.767Z,24.80
2022-08-18T08:07:30.799Z,24.90
2022-08-18T08:10:22.581Z,24.80
2022-08-18T08:13:09.291Z,24.90
2022-08-18T08:15:53.885Z,25.40
2022-08-18T08:18:33.893Z,25.30
2022-08-18T08:23:46.939Z,25.90
2022-08-18T08:26:34.684Z,26.10
2022-08-18T08:29:26.298Z,25.00
2022-08-18T08:32:00.861Z,24.90
2022-08-18T08:34:36.419Z,24.80
2022-08-18T08:37:08.511Z,24.50
2022-08-18T08:39:43.736Z,23.90
2022-08-18T08:42:30.800Z,24.10
2022-08-18T08:45:08.166Z,24.70
2022-08-18T08:47:42.395Z,24.50
2022-08-18T08:50:14.855Z,23.30
2022-08-18T08:52:56.729Z,23.60
2022-08-18T08:55:29.512Z,23.50
2022-08-18T08:58:12.165Z,24.30
2022-08-18T09:00:43.580Z,25.00
2022-08-18T09:03:40.562Z,25.10
2022-08-18T09:06:26.192Z,25.10
2022-08-18T09:09:27.705Z,24.90
2022-08-18T09:12:44.795Z,24.40
2022-08-18T09:15:44.727Z,23.30
2022-08-18T09:18:47.267Z,24.40
2022-08-18T09:21:30.870Z,25.20
2022-08-18T09:24:11.141Z,25.90
2022-08-18T09:26:51.852Z,25.20
2022-08-18T09:29:28.240Z,24.70
2022-08-18T09:32:52.465Z,24.60
2022-08-18T09:39:05.345Z,25.50
2022-08-18T09:41:45.724Z,25.80
2022-08-18T09:45:04.220Z,24.70
2022-08-18T09:48:28.544Z,25.30
2022-08-18T09:51:35.365Z,25.40
2022-08-18T09:54:20.871Z,25.70
2022-08-18T09:57:24.510Z,25.60
2022-08-18T10:00:28.233Z,25.20
2022-08-18T10:06:19.017Z,25.10
2022-08-18T10:09:27.291Z,25.20
2022-08-18T10:12:27.330Z,25.90
2022-08-18T10:15:39.187Z,26.00
2022-08-18T10:18:37.745Z,26.20
2022-08-18T10:21:22.955Z,25.30
2022-08-18T10:24:29.496Z,25.90
2022-08-18T10:27:15.275Z,25.30
2022-08-18T10:29:58.147Z,25.30
2022-08-18T10:32:52.047Z,25.70
2022-08-18T10:35:59.261Z,26.10
2022-08-18T10:38:49.646Z,27.10
2022-08-18T10:41:30.763Z,27.50
2022-08-18T10:44:29.369Z,27.50
2022-08-18T10:47:01.063Z,27.20
2022-08-18T10:49:33.288Z,26.70
2022-08-18T10:52:37.948Z,26.10
2022-08-18T10:55:48.010Z,26.10
2022-08-18T10:58:52.918Z,26.50
2022-08-18T11:01:41.243Z,26.00
2022-08-18T11:04:33.423Z,25.60
2022-08-18T11:07:11.045Z,25.60
2022-08-18T11:09:42.211Z,24.80
2022-08-18T11:12:49.140Z,25.50
2022-08-18T11:15:25.639Z,25.30
2022-08-18T11:21:37.494Z,25.00
2022-08-18T11:24:17.695Z,25.30
2022-08-18T11:26:52.780Z,25.20
2022-08-18T11:29:33.453Z,24.90
2022-08-18T11:32:09.281Z,25.50
2022-08-18T11:37:51.226Z,25.80
2022-08-18T11:41:09.488Z,26.10
2022-08-18T11:43:40.899Z,26.30
2022-08-18T11:46:28.324Z,26.10
2022-08-18T11:49:01.952Z,25.40
2022-08-18T11:51:35.093Z,25.50
2022-08-18T11:54:21.988Z,25.70
2022-08-18T11:56:54.373Z,25.40
2022-08-18T11:59:53.660Z,25.30
2022-08-18T12:02:25.376Z,25.20
2022-08-18T12:05:03.413Z,25.50
2022-08-18T12:07:57.059Z,25.70
2022-08-18T12:10:29.555Z,25.60
2022-08-18T12:13:01.247Z,26.00
2022-08-18T12:15:44.458Z,25.80
2022-08-18T12:18:26.031Z,25.70
2022-08-18T12:20:59.216Z,25.60
2022-08-18T12:23:28.049Z,25.50
2022-08-18T12:26:26.986Z,25.80
2022-08-18T12:29:01.135Z,25.90
2022-08-18T12:31:47.411Z,26.20
2022-08-18T12:37:34.046Z,26.10
2022-08-18T12:39:58.934Z,26.00
2022-08-18T12:42:28.522Z,26.40
2022-08-18T12:45:01.108Z,26.60
2022-08-18T12:47:31.281Z,26.50
2022-08-18T12:50:01.204Z,26.20
2022-08-18T12:52:29.821Z,25.90
2022-08-18T12:55:01.058Z,26.20
2022-08-18T12:57:51.803Z,26.10
2022-08-18T13:00:28.882Z,25.60
2022-08-18T13:02:57.946Z,25.50
2022-08-18T13:05:27.938Z,25.80
2022-08-18T13:08:04.548Z,25.40
2022-08-18T13:10:42.785Z,25.60
2022-08-18T13:13:15.571Z,25.40
2022-08-18T13:15:57.958Z,25.90
2022-08-18T13:18:28.790Z,26.40
2022-08-18T13:20:58.425Z,26.50
2022-08-18T13:23:28.556Z,26.90
2022-08-18T13:26:01.633Z,26.80
2022-08-18T13:28:35.659Z,26.50
2022-08-18T13:31:06.596Z,26.80
2022-08-18T13:33:56.573Z,26.50
2022-08-18T13:36:24.575Z,26.90
2022-08-18T13:38:57.222Z,27.20
2022-08-18T13:43:59.881Z,27.50
2022-08-18T13:46:31.132Z,27.70
2022-08-18T13:49:03.128Z,27.60
2022-08-18T13:51:31.983Z,27.10
2022-08-18T13:54:27.026Z,26.80
2022-08-18T13:56:51.743Z,26.70
2022-08-18T13:59:21.795Z,26.60
2022-08-18T14:01:53.380Z,26.80
2022-08-18T14:04:27.745Z,27.10
2022-08-18T14:06:58.721Z,27.40
2022-08-18T14:09:36.673Z,27.30
2022-08-18T14:12:21.625Z,27.10
2022-08-18T14:14:52.964Z,27.30
2022-08-18T14:17:24.502Z,27.30
2022-08-18T14:20:15.359Z,27.50
2022-08-18T14:23:09.634Z,27.10
2022-08-18T14:25:56.045Z,26.80
2022-08-18T14:28:25.347Z,26.30
2022-08-18T14:30:55.069Z,25.90
2022-08-18T14:33:49.742Z,26.10
2022-08-18T14:36:16.623Z,26.20
2022-08-18T14:38:46.712Z,26.50
2022-08-18T14:41:20.368Z,26.80
2022-08-18T14:44:12.307Z,26.80
2022-08-18T14:46:52.416Z,26.80
2022-08-18T14:49:28.326Z,26.60
2022-08-18T14:51:58.183Z,26.90
2022-08-18T14:54:28.516Z,27.00
2022-08-18T14:56:58.788Z,26.80
2022-08-18T14:59:28.514Z,26.70
2022-08-18T15:01:57.162Z,26.50
2022-08-18T15:04:28.615Z,26.90
2022-08-18T15:06:57.085Z,27.10
2022-08-18T15:09:27.329Z,27.20
2022-08-18T15:11:58.462Z,27.30
2022-08-18T15:14:33.538Z,27.20
2022-08-18T15:17:11.842Z,27.00
2022-08-18T15:19:58.836Z,26.80
2022-08-18T15:22:47.906Z,27.10
2022-08-18T15:25:34.482Z,27.10
2022-08-18T15:28:03.367Z,27.50
2022-08-18T15:30:32.220Z,27.60
2022-08-18T15:33:03.255Z,27.70
2022-08-18T15:35:34.502Z,27.30
2022-08-18T15:38:08.121Z,27.10
2022-08-18T15:40:49.762Z,27.30
2022-08-18T15:43:29.115Z,27.70
2022-08-18T15:46:00.858Z,27.70
2022-08-18T15:48:32.058Z,27.70
2022-08-18T15:51:11.709Z,27.50
2022-08-18T15:53:44.617Z,27.50
2022-08-18T15:56:16.521Z,27.40
2022-08-18T15:58:50.559Z,27.60
2022-08-18T16:01:30.177Z,27.50
2022-08-18T16:04:03.272Z,27.40
2022-08-18T16:06:35.098Z,27.50
2022-08-18T16:09:05.582Z,27.40
2022-08-18T16:11:34.000Z,27.50
2022-08-18T16:14:02.326Z,27.30
2022-08-18T16:16:36.016Z,27.70
2022-08-18T16:19:06.838Z,27.80
2022-08-18T16:21:40.369Z,27.80
2022-08-18T16:24:09.768Z,27.50
2022-08-18T16:26:38.201Z,27.70
2022-08-18T16:29:07.162Z,27.50
2022-08-18T16:31:35.531Z,27.20
2022-08-18T16:34:04.516Z,27.40
2022-08-18T16:36:32.820Z,27.60
2022-08-18T16:39:02.527Z,27.60
2022-08-18T16:41:31.919Z,27.70
2022-08-18T16:44:00.288Z,27.50
2022-08-18T16:46:29.572Z,27.20
2022-08-18T16:48:59.512Z,27.50
2022-08-18T16:51:29.823Z,27.40
2022-08-18T16:53:59.575Z,27.20
2022-08-18T16:56:34.055Z,27.30
2022-08-18T16:59:19.755Z,27.00
2022-08-18T17:02:05.604Z,27.10
2022-08-18T17:04:34.733Z,27.00
2022-08-18T17:07:05.551Z,26.80
2022-08-18T17:09:35.973Z,27.00
2022-08-18T17:12:06.602Z,27.10
2022-08-18T17:14:36.907Z,27.00
2022-08-18T17:17:06.181Z,26.60
2022-08-18T17:19:37.618Z,26.60
2022-08-18T17:22:08.156Z,26.90
2022-08-18T17:24:37.733Z,27.00
2022-08-18T17:27:26.449Z,27.10
2022-08-18T17:30:03.751Z,26.80
2022-08-18T17:32:46.658Z,27.10
2022-08-18T17:35:23.514Z,26.90
2022-08-18T17:38:04.878Z,27.00
2022-08-18T17:40:41.443Z,27.20
2022-08-18T17:43:15.902Z,26.90
2022-08-18T17:45:47.007Z,27.20
2022-08-18T17:48:19.987Z,27.10
2022-08-18T17:51:12.075Z,27.30
2022-08-18T17:53:40.846Z,26.70
2022-08-18T17:56:16.733Z,26.50
2022-08-18T17:58:55.821Z,26.70
2022-08-18T18:01:26.982Z,27.00
2022-08-18T18:03:55.424Z,27.20
2022-08-18T18:06:31.657Z,26.70
2022-08-18T18:09:02.997Z,26.60
2022-08-18T18:11:35.206Z,26.80
2022-08-18T18:14:27.062Z,26.60
2022-08-18T18:17:12.745Z,26.30
2022-08-18T18:19:44.012Z,26.70
2022-08-18T18:22:24.099Z,26.50
2022-08-18T18:24:55.658Z,26.60
2022-08-18T18:27:35.582Z,26.50
2022-08-18T18:30:27.601Z,26.10
2022-08-18T18:33:02.856Z,26.50
2022-08-18T18:35:34.222Z,26.00
2022-08-18T18:38:06.575Z,26.10
2022-08-18T18:40:38.947Z,25.80
2022-08-18T18:43:24.082Z,26.20
2022-08-18T18:46:29.919Z,26.10
2022-08-18T18:49:19.284Z,26.00
2022-08-18T18:52:07.513Z,25.90
2022-08-18T18:54:52.063Z,26.10
2022-08-18T18:57:32.066Z,26.30
2022-08-18T19:00:18.150Z,26.20
2022-08-18T19:03:03.947Z,26.10
2022-08-18T19:05:39.451Z,25.80
2022-08-18T19:08:24.048Z,25.70
2022-08-18T19:11:03.193Z,26.00
2022-08-18T19:13:36.721Z,25.90
2022-08-18T19:16:23.473Z,25.60
2022-08-18T19:19:36.126Z,25.50
2022-08-18T19:22:03.621Z,25.80
2022-08-18T19:24:42.275Z,25.80
2022-08-18T19:27:26.456Z,26.00
2022-08-18T19:30:03.719Z,26.10
2022-08-18T19:32:42.915Z,26.00
2022-08-18T19:35:19.730Z,26.10
2022-08-18T19:38:07.865Z,26.10
2022-08-18T19:40:47.917Z,26.10
2022-08-18T19:43:27.510Z,26.10
2022-08-18T19:46:11.094Z,26.00
2022-08-18T19:48:44.672Z,25.80
2022-08-18T19:51:25.261Z,25.90
2022-08-18T19:54:19.622Z,25.80
2022-08-18T19:57:09.467Z,25.90
2022-08-18T20:00:05.782Z,25.80
2022-08-18T20:03:04.246Z,25.80
2022-08-18T20:05:45.965Z,25.70
2022-08-18T20:09:09.370Z,25.70
2022-08-18T20:11:54.884Z,25.70
2022-08-18T20:14:23.938Z,25.70
2022-08-18T20:17:18.123Z,25.70
2022-08-18T20:20:06.915Z,25.60
2022-08-18T20:22:43.209Z,25.50
2022-08-18T20:25:41.934Z,25.50
2022-08-18T20:28:37.289Z,25.50
2022-08-18T20:31:13.713Z,25.40
2022-08-18T20:34:04.009Z,25.40
2022-08-18T20:36:36.960Z,25.30
2022-08-18T20:39:43.468Z,25.30
2022-08-18T20:42:55.958Z,25.30
2022-08-18T20:45:45.963Z,25.20
2022-08-18T20:48:32.680Z,25.20
2022-08-18T20:51:11.510Z,25.10
2022-08-18T20:54:18.482Z,25.10
2022-08-18T20:56:54.568Z,25.10
2022-08-18T20:59:30.378Z,25.00
2022-08-18T21:02:02.734Z,25.00
2022-08-18T21:04:47.029Z,25.00
2022-08-18T21:07:37.202Z,24.90
2022-08-18T21:10:15.054Z,24.90
2022-08-18T21:12:53.609Z,24.90
2022-08-18T21:15:28.225Z,24.80
2022-08-18T21:18:02.325Z,24.80
2022-08-18T21:20:31.731Z,24.80
2022-08-18T21:23:06.604Z,24.80
2022-08-18T21:25:35.636Z,24.70
2022-08-18T21:28:06.966Z,24.70
2022-08-18T21:30:36.922Z,24.70
2022-08-18T21:33:20.176Z,24.70
2022-08-18T21:35:48.994Z,24.70
2022-08-18T21:38:27.967Z,24.60
2022-08-18T21:41:00.985Z,24.50
2022-08-18T21:43:43.579Z,24.50
2022-08-18T21:46:27.794Z,24.50
2022-08-18T21:48:59.352Z,24.50
2022-08-18T21:51:31.194Z,24.40
2022-08-18T21:54:01.237Z,24.40
2022-08-18T21:56:33.216Z,24.40
2022-08-18T21:59:11.503Z,24.30
2022-08-18T22:01:50.552Z,24.30
2022-08-18T22:04:28.922Z,24.30
2022-08-18T22:07:01.463Z,24.30
2022-08-18T22:09:50.182Z,24.30
2022-08-18T22:12:46.491Z,24.30
2022-08-18T22:15:20.114Z,24.20
2022-08-18T22:17:56.928Z,24.20
2022-08-18T22:20:49.372Z,24.10
2022-08-18T22:23:56.872Z,24.10
2022-08-18T22:26:29.328Z,24.10
2022-08-18T22:29:03.020Z,24.00
2022-08-18T22:31:35.003Z,24.00
2022-08-18T22:34:08.341Z,23.90
2022-08-18T22:36:40.446Z,23.90
2022-08-18T22:39:13.294Z,23.90
2022-08-18T22:41:42.765Z,23.90
2022-08-18T22:44:11.135Z,23.90
2022-08-18T22:46:39.607Z,23.80
2022-08-18T22:49:09.437Z,23.80
2022-08-18T22:51:38.771Z,23.80
2022-08-18T22:54:09.940Z,23.70
2022-08-18T22:56:38.803Z,23.70
2022-08-18T22:59:22.652Z,23.70
2022-08-18T23:01:52.599Z,23.70
2022-08-18T23:04:25.496Z,23.60
2022-08-18T23:06:54.916Z,23.60
2022-08-18T23:09:26.609Z,23.60
2022-08-18T23:11:57.386Z,23.60
2022-08-18T23:14:26.639Z,23.50
2022-08-18T23:16:54.977Z,23.50
2022-08-18T23:19:24.636Z,23.50
2022-08-18T23:21:52.984Z,23.50
2022-08-18T23:24:22.749Z,23.40
2022-08-18T23:26:51.134Z,23.40
2022-08-18T23:29:22.931Z,23.30
2022-08-18T23:31:52.649Z,23.30
2022-08-18T23:34:24.903Z,23.30
2022-08-18T23:36:57.666Z,23.30
2022-08-18T23:39:27.760Z,23.30
2022-08-18T23:41:56.635Z,23.10
2022-08-18T23:44:27.349Z,23.20
2022-08-18T23:46:56.805Z,23.10
2022-08-18T23:49:29.165Z,23.10
2022-08-18T23:51:59.775Z,23.10
2022-08-18T23:54:33.565Z,23.20
2022-08-18T23:57:02.772Z,23.10
2022-08-18T23:59:31.351Z,23.10
